createdAt,value
2018-07-11T11:24:43.184Z,208.12
2018-07-11T11:25:43.055Z,230.62
2018-07-11T11:26:43.186Z,281.25
2018-07-11T11:27:42.951Z,292.50
2018-07-11T11:28:42.894Z,286.88
2018-07-11T11:29:44.071Z,253.12
2018-07-11T11:30:42.840Z,185.62
2018-07-11T11:31:42.821Z,163.12
2018-07-11T11:32:42.867Z,151.88
2018-07-11T11:33:42.926Z,151.88
2018-07-11T11:34:42.810Z,157.50
2018-07-11T11:35:42.834Z,163.12
2018-07-11T11:36:42.774Z,168.75
2018-07-11T11:37:42.842Z,157.50
2018-07-11T11:38:42.756Z,140.62
2018-07-11T11:39:42.747Z,151.88
2018-07-11T11:40:42.723Z,168.75
2018-07-11T11:41:43.025Z,174.38
2018-07-11T11:42:42.890Z,219.38
2018-07-11T11:43:42.697Z,163.12
2018-07-11T11:44:42.686Z,146.25
2018-07-11T11:45:42.683Z,146.25
2018-07-11T11:46:42.682Z,140.62
2018-07-11T11:47:42.719Z,140.62
2018-07-11T11:48:42.863Z,135.00
2018-07-11T11:49:42.887Z,129.38
2018-07-11T11:50:42.766Z,129.38
2018-07-11T11:51:42.669Z,135.00
2018-07-11T11:52:43.256Z,140.62
2018-07-11T11:53:42.634Z,157.50
2018-07-11T11:54:42.583Z,180.00
2018-07-11T11:55:42.575Z,196.88
2018-07-11T11:56:42.563Z,208.12
2018-07-11T11:57:42.882Z,213.75
2018-07-11T11:58:42.534Z,213.75
2018-07-11T11:59:42.721Z,219.38
2018-07-11T12:00:42.568Z,225.00
2018-07-11T12:01:42.573Z,236.25
2018-07-11T12:02:42.579Z,241.88
2018-07-11T12:03:42.483Z,253.12
2018-07-11T12:04:42.768Z,270.00
2018-07-11T12:05:42.687Z,292.50
2018-07-11T12:06:42.441Z,303.75
2018-07-11T12:07:42.509Z,298.12
2018-07-11T12:08:42.418Z,303.75
2018-07-11T12:09:42.406Z,309.38
2018-07-11T12:10:42.491Z,309.38
2018-07-11T12:11:42.387Z,337.50
2018-07-11T12:12:42.454Z,343.12
2018-07-11T12:13:42.361Z,309.38
2018-07-11T12:14:42.429Z,281.25
2018-07-11T12:15:42.362Z,292.50
2018-07-11T12:16:42.355Z,326.25
2018-07-11T12:17:42.412Z,303.75
2018-07-11T12:18:42.310Z,303.75
2018-07-11T12:19:42.327Z,303.75
2018-07-11T12:20:42.616Z,286.88
2018-07-11T12:21:42.269Z,292.50
2018-07-11T12:22:42.439Z,303.75
2018-07-11T12:23:42.242Z,320.62
2018-07-11T12:24:42.233Z,348.75
2018-07-11T12:25:42.220Z,376.88
2018-07-11T12:26:42.211Z,360.00
2018-07-11T12:27:42.261Z,309.38
2018-07-11T12:28:42.200Z,202.50
2018-07-11T12:29:42.186Z,168.75
2018-07-11T12:30:42.174Z,157.50
2018-07-11T12:31:42.171Z,168.75
2018-07-11T12:32:42.247Z,185.62
2018-07-11T12:33:42.222Z,213.75
2018-07-11T12:34:42.153Z,247.50
2018-07-11T12:35:42.124Z,298.12
2018-07-11T12:36:42.176Z,343.12
2018-07-11T12:37:42.123Z,376.88
2018-07-11T12:38:44.757Z,371.25
2018-07-11T12:39:42.086Z,371.25
2018-07-11T12:40:42.072Z,376.88
2018-07-11T12:41:42.076Z,376.88
2018-07-11T12:42:42.238Z,371.25
2018-07-11T12:43:42.090Z,365.62
2018-07-11T12:44:42.018Z,371.25
2018-07-11T12:45:42.026Z,376.88
2018-07-11T12:46:42.249Z,354.38
2018-07-11T12:47:42.039Z,337.50
2018-07-11T12:48:42.054Z,292.50
2018-07-11T12:49:41.981Z,225.00
2018-07-11T12:50:41.974Z,163.12
2018-07-11T12:51:44.728Z,129.38
2018-07-11T12:52:41.928Z,123.75
2018-07-11T12:53:42.030Z,123.75
2018-07-11T12:54:41.921Z,135.00
2018-07-11T12:55:41.913Z,151.88
2018-07-11T12:56:41.905Z,168.75
2018-07-11T12:57:41.882Z,202.50
2018-07-11T12:58:41.951Z,236.25
2018-07-11T12:59:41.865Z,292.50
2018-07-11T13:00:41.952Z,382.50
2018-07-11T13:01:41.927Z,506.25
2018-07-11T13:02:41.839Z,534.38
2018-07-11T13:03:41.886Z,461.25
2018-07-11T13:04:41.852Z,483.75
2018-07-11T13:05:41.886Z,590.62
2018-07-11T13:06:42.026Z,511.88
2018-07-11T13:07:41.968Z,523.12
2018-07-11T13:08:42.069Z,556.88
2018-07-11T13:09:43.991Z,568.12
2018-07-11T13:10:41.943Z,551.25
2018-07-11T13:11:41.812Z,618.75
2018-07-11T13:12:41.900Z,635.62
2018-07-11T13:13:42.157Z,708.75
2018-07-11T13:14:41.930Z,871.88
2018-07-11T13:15:42.458Z,1980.00
2018-07-11T13:16:41.928Z,1119.38
2018-07-11T13:17:41.969Z,1468.12
2018-07-11T13:18:42.201Z,466.88
2018-07-11T13:19:41.871Z,309.38
2018-07-11T13:20:41.914Z,247.50
2018-07-11T13:21:41.737Z,241.88
2018-07-11T13:22:41.942Z,247.50
2018-07-11T13:23:42.210Z,247.50
2018-07-11T13:26:08.452Z,253.12
2018-07-11T13:27:09.373Z,315.00
2018-07-11T13:28:08.974Z,1102.50
2018-07-11T13:29:09.289Z,427.50
2018-07-11T13:30:07.592Z,303.75
2018-07-11T13:31:07.581Z,303.75
2018-07-11T13:32:08.186Z,354.38
2018-07-11T13:33:07.611Z,551.25
2018-07-11T13:34:07.843Z,1012.50
2018-07-11T13:35:08.251Z,1080.00
2018-07-11T13:36:07.398Z,450.00
2018-07-11T13:37:09.190Z,421.88
2018-07-11T13:38:07.416Z,2148.75
2018-07-11T13:39:10.117Z,2559.38
2018-07-11T13:43:14.112Z,258.75
